Time;durP1;ratioP1;P1;durP2;ratioP2;P2;SDS_P1;SDS_P2;PMS_P1;PMS_P2;Temp;Humidity;BMP_temperature;BMP_pressure;BME280_temperature;BME280_humidity;BME280_pressure;Samples;Min_cycle;Max_cycle;Signal;HPM_P1;HPM_P2
2021/10/12 00:00:19;;;;;;;39.53;22.92;;;;;;;7.40;100.00;96469.38;1027363;28;20078;-70
2021/10/12 00:00:49;;;;;;;36.42;22.90;;;;;;;7.42;100.00;96473.38;1023257;28;20808;-71
2021/10/12 00:01:20;;;;;;;39.38;22.75;;;;;;;7.44;100.00;96479.13;1022795;29;20511;-70
2021/10/12 00:01:50;;;;;;;39.53;22.48;;;;;;;7.27;100.00;96445.06;1022898;29;20042;-71
2021/10/12 00:02:21;;;;;;;34.80;22.23;;;;;;;7.45;100.00;96474.75;1022895;28;20027;-71
2021/10/12 00:02:51;;;;;;;36.53;22.88;;;;;;;7.43;100.00;96467.13;1021325;29;20031;-71
2021/10/12 00:03:22;;;;;;;37.58;23.27;;;;;;;7.45;100.00;96472.13;1026716;28;20027;-71
2021/10/12 00:03:52;;;;;;;39.70;23.42;;;;;;;7.39;100.00;96460.75;1026454;28;20034;-71
2021/10/12 00:04:22;;;;;;;36.10;23.40;;;;;;;7.46;100.00;96476.31;1026338;28;20448;-72
2021/10/12 00:04:53;;;;;;;35.08;22.08;;;;;;;7.49;100.00;96475.88;1018961;29;20221;-72
2021/10/12 00:05:23;;;;;;;38.75;22.52;;;;;;;7.48;100.00;96474.28;1018794;28;20514;-70
2021/10/12 00:05:54;;;;;;;35.08;21.98;;;;;;;7.45;100.00;96464.28;1027245;28;20423;-71
2021/10/12 00:06:24;;;;;;;36.03;22.02;;;;;;;7.44;100.00;96471.31;1026868;28;20026;-71
2021/10/12 00:06:55;;;;;;;35.33;22.73;;;;;;;7.43;100.00;96467.13;1019088;29;20119;-71
2021/10/12 00:07:25;;;;;;;37.05;24.20;;;;;;;7.45;100.00;96474.75;1016659;29;20032;-71
2021/10/12 00:07:56;;;;;;;32.35;21.17;;;;;;;7.44;100.00;96473.13;1018168;29;20034;-71
2021/10/12 00:08:27;;;;;;;37.28;23.40;;;;;;;7.42;100.00;96472.56;1023322;28;20472;-71
2021/10/12 00:08:58;;;;;;;39.78;23.55;;;;;;;7.44;100.00;96468.69;1023230;28;20037;-70
2021/10/12 00:09:29;;;;;;;41.28;22.83;;;;;;;7.38;100.00;96463.56;1027554;28;20277;-71
2021/10/12 00:09:59;;;;;;;34.88;21.98;;;;;;;7.44;100.00;96468.69;1031688;28;20265;-70
2021/10/12 00:10:29;;;;;;;37.50;22.75;;;;;;;7.42;100.00;96472.56;1028663;28;20026;-71
2021/10/12 00:11:00;;;;;;;39.15;23.98;;;;;;;7.42;100.00;96464.75;1031062;28;20092;-71
2021/10/12 00:11:31;;;;;;;41.25;23.52;;;;;;;7.44;100.00;96467.91;1026711;28;20077;-71
2021/10/12 00:12:01;;;;;;;40.83;22.85;;;;;;;7.42;100.00;96469.97;1018980;29;20031;-71
2021/10/12 00:12:32;;;;;;;42.55;23.45;;;;;;;7.36;100.00;96458.59;1023134;28;20059;-71
2021/10/12 00:13:02;;;;;;;42.85;23.17;;;;;;;7.40;100.00;96469.38;1022660;28;20386;-70
2021/10/12 00:13:33;;;;;;;43.50;23.40;;;;;;;7.37;100.00;96470.63;1022834;28;20106;-71
2021/10/12 00:14:03;;;;;;;37.80;23.65;;;;;;;7.29;100.00;96461.28;1027069;28;20026;-71
2021/10/12 00:14:34;;;;;;;40.13;24.83;;;;;;;7.36;100.00;96465.63;1026872;28;20034;-71
2021/10/12 00:15:05;;;;;;;41.50;24.05;;;;;;;7.16;100.00;96435.38;1027142;28;20034;-72
2021/10/12 00:15:35;;;;;;;38.25;23.70;;;;;;;7.36;100.00;96470.84;1026832;28;20042;-71
2021/10/12 00:16:05;;;;;;;41.55;25.13;;;;;;;7.26;100.00;96460.94;1027010;28;20029;-71
2021/10/12 00:16:36;;;;;;;40.95;25.25;;;;;;;7.27;100.00;96462.53;1026974;28;20031;-71
2021/10/12 00:17:06;;;;;;;41.15;24.45;;;;;;;7.22;100.00;96460.59;1014994;29;20028;-71
2021/10/12 00:17:38;;;;;;;38.45;23.95;;;;;;;7.29;100.00;96471.75;1022774;29;20083;-71
2021/10/12 00:18:08;;;;;;;41.15;25.08;;;;;;;7.29;100.00;96470.94;1022468;29;20078;-71
2021/10/12 00:18:38;;;;;;;44.42;26.08;;;;;;;7.22;100.00;96465.81;1028875;28;20267;-71
2021/10/12 00:19:09;;;;;;;40.05;23.85;;;;;;;7.24;100.00;96463.78;1026880;28;20034;-71
2021/10/12 00:19:40;;;;;;;44.50;26.30;;;;;;;7.25;100.00;96473.22;1026589;28;20196;-71
2021/10/12 00:20:11;;;;;;;36.28;23.98;;;;;;;7.26;100.00;96469.56;1023115;28;20055;-71
2021/10/12 00:20:41;;;;;;;43.40;24.67;;;;;;;7.27;100.00;96463.31;1023098;28;20842;-70
2021/10/12 00:21:12;;;;;;;39.10;23.50;;;;;;;7.21;100.00;96456.41;1023315;28;20034;-71
2021/10/12 00:21:42;;;;;;;39.03;24.33;;;;;;;7.18;100.00;96461.28;1026810;28;20030;-70
2021/10/12 00:22:13;;;;;;;38.05;23.88;;;;;;;7.15;100.00;96452.06;1027011;28;20058;-71
2021/10/12 00:22:46;;;;;;;47.22;24.80;;;;;;;7.20;100.00;96462.63;1022850;29;20039;-71
2021/10/12 00:23:17;;;;;;;39.17;24.23;;;;;;;7.18;100.00;96467.28;1023604;28;20100;-71
2021/10/12 00:23:48;;;;;;;47.67;24.67;;;;;;;7.18;100.00;96462.06;1023818;28;20972;-71
2021/10/12 00:24:18;;;;;;;41.17;24.00;;;;;;;7.17;100.00;96467.50;1031395;28;20084;-71
2021/10/12 00:24:48;;;;;;;45.78;25.95;;;;;;;7.13;100.00;96461.94;1035073;28;20025;-71
2021/10/12 00:25:19;;;;;;;47.10;26.70;;;;;;;7.13;100.00;96453.31;1026750;28;20030;-70
2021/10/12 00:25:50;;;;;;;45.30;27.50;;;;;;;7.17;100.00;96457.06;1026594;28;20046;-71
2021/10/12 00:26:21;;;;;;;42.03;24.80;;;;;;;7.13;100.00;96454.09;1030890;28;20030;-70
2021/10/12 00:26:51;;;;;;;40.00;24.25;;;;;;;7.14;100.00;96455.69;1031184;28;20081;-70
2021/10/12 00:27:21;;;;;;;41.47;26.17;;;;;;;7.12;100.00;96449.91;1035034;28;20038;-70
2021/10/12 00:27:52;;;;;;;41.03;25.83;;;;;;;7.07;100.00;96436.72;1038468;28;20037;-71
2021/10/12 00:28:24;;;;;;;42.35;25.33;;;;;;;7.16;100.00;96453.66;1030656;28;20034;-71
2021/10/12 00:28:54;;;;;;;46.30;26.55;;;;;;;7.11;100.00;96452.72;1027018;28;20766;-71
2021/10/12 00:29:25;;;;;;;42.08;25.83;;;;;;;7.13;100.00;96453.31;1026790;28;20258;-71
2021/10/12 00:29:56;;;;;;;44.58;26.50;;;;;;;7.12;100.00;96452.53;1027685;28;20830;-71
2021/10/12 00:30:26;;;;;;;41.10;25.15;;;;;;;7.07;100.00;96447.16;1035445;28;20264;-71
2021/10/12 00:30:57;;;;;;;43.92;25.73;;;;;;;7.11;100.00;96450.94;1039115;28;20020;-71
2021/10/12 00:31:28;;;;;;;46.80;26.48;;;;;;;7.04;100.00;96445.81;1035027;28;20507;-71
2021/10/12 00:31:58;;;;;;;45.53;27.13;;;;;;;7.06;100.00;96441.16;1030961;28;20265;-72
2021/10/12 00:32:29;;;;;;;45.63;27.15;;;;;;;7.13;100.00;96455.91;1018833;29;20024;-70
2021/10/12 00:32:59;;;;;;;44.35;25.77;;;;;;;7.05;100.00;96444.00;1018952;29;20012;-71
2021/10/12 00:33:30;;;;;;;53.20;26.33;;;;;;;7.10;100.00;96451.94;1014979;29;20016;-71
2021/10/12 00:34:01;;;;;;;50.22;26.15;;;;;;;7.08;100.00;96443.53;1022908;29;20478;-72
2021/10/12 00:34:31;;;;;;;48.78;26.27;;;;;;;7.10;100.00;96454.53;1022978;29;20259;-71
2021/10/12 00:35:02;;;;;;;41.90;25.20;;;;;;;7.07;100.00;96453.16;1022979;28;20734;-71
2021/10/12 00:35:33;;;;;;;46.47;27.80;;;;;;;7.09;100.00;96451.13;1027049;28;20093;-71
2021/10/12 00:36:03;;;;;;;43.90;26.75;;;;;;;7.08;100.00;96449.56;1023048;28;20326;-71
2021/10/12 00:36:34;;;;;;;46.40;26.95;;;;;;;7.09;100.00;96445.91;1027011;28;20444;-72
2021/10/12 00:37:04;;;;;;;45.75;27.73;;;;;;;7.07;100.00;96447.94;1030937;28;20384;-72
2021/10/12 00:37:35;;;;;;;42.72;25.88;;;;;;;7.09;100.00;96450.34;1030892;28;20427;-71
2021/10/12 00:38:05;;;;;;;46.92;26.33;;;;;;;7.11;100.00;96450.94;1034480;28;20029;-70
2021/10/12 00:38:35;;;;;;;46.22;27.60;;;;;;;7.05;100.00;96447.38;1030731;28;20073;-72
2021/10/12 00:39:06;;;;;;;43.35;26.30;;;;;;;7.08;100.00;96453.97;1026744;28;20037;-71
2021/10/12 00:39:36;;;;;;;46.42;25.88;;;;;;;7.08;100.00;96446.94;1022995;29;20028;-71
2021/10/12 00:40:07;;;;;;;43.65;26.63;;;;;;;7.09;100.00;96450.34;1022066;28;20506;-71
2021/10/12 00:40:38;;;;;;;44.28;26.35;;;;;;;7.09;100.00;96443.31;1025930;28;20018;-71
2021/10/12 00:41:08;;;;;;;45.00;27.05;;;;;;;7.09;100.00;96445.13;1027083;28;20259;-71
2021/10/12 00:41:39;;;;;;;43.25;27.42;;;;;;;7.10;100.00;96441.50;1023067;28;20027;-71
2021/10/12 00:42:09;;;;;;;38.65;25.48;;;;;;;7.03;100.00;96438.19;1023066;29;20019;-71
2021/10/12 00:42:40;;;;;;;42.30;26.73;;;;;;;7.04;100.00;96431.94;1011175;29;20046;-69
2021/10/12 00:43:10;;;;;;;42.80;25.70;;;;;;;7.05;100.00;96439.56;1019130;29;20422;-71
2021/10/12 00:43:41;;;;;;;46.30;26.83;;;;;;;7.07;100.00;96447.16;1023029;29;20031;-70
2021/10/12 00:44:11;;;;;;;45.65;28.17;;;;;;;7.07;100.00;96458.38;1023432;28;20015;-69
2021/10/12 00:44:42;;;;;;;43.40;26.35;;;;;;;6.97;100.00;96439.84;1022788;29;20031;-72
2021/10/12 00:45:12;;;;;;;46.17;26.05;;;;;;;7.07;100.00;96450.56;1015321;29;20027;-71
2021/10/12 00:45:43;;;;;;;45.33;26.98;;;;;;;7.06;100.00;96446.38;1011307;29;20128;-71
2021/10/12 00:46:13;;;;;;;39.92;25.77;;;;;;;7.09;100.00;96447.75;1024727;28;20096;-71
2021/10/12 00:46:44;;;;;;;47.75;26.70;;;;;;;7.09;100.00;96447.75;1026995;28;20092;-71
2021/10/12 00:47:14;;;;;;;44.85;25.90;;;;;;;7.10;100.00;96451.94;1018882;29;20641;-72
2021/10/12 00:47:58;;;;;;;47.40;27.23;;;;;;;7.04;100.00;96437.97;1018412;29;20059;-72
2021/10/12 00:48:28;;;;;;;46.47;27.13;;;;;;;7.08;100.00;96444.34;1020763;29;20082;-70
2021/10/12 00:48:59;;;;;;;48.17;26.10;;;;;;;7.01;100.00;96437.63;1026462;28;20358;-70
2021/10/12 00:49:29;;;;;;;42.72;25.60;;;;;;;7.06;100.00;96446.38;1027023;28;20100;-71
2021/10/12 00:50:00;;;;;;;42.28;26.02;;;;;;;7.08;100.00;96446.16;1026962;28;20026;-70
2021/10/12 00:50:31;;;;;;;45.28;26.25;;;;;;;7.08;100.00;96451.38;1022996;29;20109;-71
2021/10/12 00:51:02;;;;;;;41.00;26.60;;;;;;;7.09;100.00;96439.91;1019185;29;20023;-72
2021/10/12 00:51:32;;;;;;;41.88;25.38;;;;;;;7.03;100.00;96441.59;1019083;29;20302;-71
2021/10/12 00:52:03;;;;;;;42.13;26.13;;;;;;;7.07;100.00;96447.16;1015479;29;20565;-72
2021/10/12 00:52:35;;;;;;;47.83;27.10;;;;;;;7.03;100.00;96438.97;1019090;29;20112;-72
2021/10/12 00:53:05;;;;;;;45.33;26.85;;;;;;;7.05;100.00;96444.78;1019089;29;20020;-71
2021/10/12 00:53:36;;;;;;;42.88;26.33;;;;;;;7.05;100.00;96449.22;1023921;28;20263;-71
2021/10/12 00:54:06;;;;;;;47.17;27.27;;;;;;;7.07;100.00;96441.94;1026846;28;20086;-71
2021/10/12 00:54:37;;;;;;;46.13;26.17;;;;;;;7.07;100.00;96441.94;1027165;28;20481;-71
2021/10/12 00:55:07;;;;;;;45.33;26.95;;;;;;;7.06;100.00;96451.59;1027013;28;20043;-71
2021/10/12 00:55:39;;;;;;;41.28;24.58;;;;;;;7.06;100.00;96440.34;1022944;28;20035;-71
2021/10/12 00:56:10;;;;;;;41.00;27.00;;;;;;;7.06;100.00;96442.97;1027113;28;20105;-71
2021/10/12 00:56:41;;;;;;;42.70;25.23;;;;;;;7.08;100.00;96448.78;1027081;28;20098;-70
2021/10/12 00:57:11;;;;;;;42.70;26.17;;;;;;;7.04;100.00;96443.19;1030851;28;20257;-71
2021/10/12 00:57:41;;;;;;;43.92;26.58;;;;;;;7.01;100.00;96435.03;1026871;28;20018;-70
2021/10/12 00:58:13;;;;;;;40.92;25.00;;;;;;;7.01;100.00;96432.41;1018852;29;20023;-71
2021/10/12 00:58:44;;;;;;;45.88;26.08;;;;;;;6.98;100.00;96425.81;1018833;29;20032;-72
2021/10/12 00:59:14;;;;;;;45.00;27.30;;;;;;;7.04;100.00;96429.34;1026851;28;20254;-71
2021/10/12 00:59:45;;;;;;;42.53;25.88;;;;;;;7.01;100.00;96433.19;1030889;28;20053;-71
2021/10/12 01:00:16;;;;;;;42.65;25.27;;;;;;;7.07;100.00;96439.31;1023210;29;20050;-70
2021/10/12 01:00:46;;;;;;;42.30;25.92;;;;;;;7.09;100.00;96439.91;1022911;28;20023;-71
2021/10/12 01:01:16;;;;;;;44.65;26.83;;;;;;;7.06;100.00;96435.13;1026901;28;20019;-71
2021/10/12 01:01:47;;;;;;;40.03;25.10;;;;;;;7.06;100.00;96441.16;1027024;28;20019;-71
2021/10/12 01:02:17;;;;;;;41.92;25.65;;;;;;;7.04;100.00;96439.78;1027128;28;20019;-71
2021/10/12 01:02:48;;;;;;;43.95;24.63;;;;;;;6.99;100.00;96429.22;1026852;28;20027;-72
2021/10/12 01:03:18;;;;;;;46.83;26.85;;;;;;;7.05;100.00;96430.94;1023052;29;20027;-71
2021/10/12 01:03:49;;;;;;;44.65;26.33;;;;;;;7.06;100.00;96440.34;1019010;29;20061;-71
2021/10/12 01:04:22;;;;;;;44.95;26.10;;;;;;;7.06;100.00;96440.34;1019056;29;20474;-70
2021/10/12 01:04:53;;;;;;;44.25;26.25;;;;;;;7.08;100.00;96435.72;1019026;29;20024;-71
2021/10/12 01:05:23;;;;;;;43.10;25.95;;;;;;;7.06;100.00;96435.13;1014966;29;20256;-71
2021/10/12 01:05:53;;;;;;;47.03;26.63;;;;;;;7.05;100.00;96433.56;1015089;29;20032;-71
2021/10/12 01:06:24;;;;;;;46.03;27.10;;;;;;;7.03;100.00;96430.34;1014949;29;20031;-71
2021/10/12 01:06:54;;;;;;;44.38;26.45;;;;;;;7.06;100.00;96435.94;1019104;29;20020;-71
2021/10/12 01:07:25;;;;;;;46.83;26.10;;;;;;;7.08;100.00;96425.28;1027067;28;20019;-71
2021/10/12 01:07:55;;;;;;;44.78;25.58;;;;;;;7.08;100.00;96433.09;1022142;28;20096;-72
2021/10/12 01:08:26;;;;;;;45.55;25.85;;;;;;;7.06;100.00;96424.69;1022832;29;20062;-71
2021/10/12 01:08:56;;;;;;;40.75;25.80;;;;;;;7.05;100.00;96434.34;1022954;28;20079;-71
2021/10/12 01:09:26;;;;;;;40.13;26.05;;;;;;;7.04;100.00;96422.31;1026829;28;20023;-71
2021/10/12 01:09:57;;;;;;;41.75;26.20;;;;;;;7.06;100.00;96425.50;1026868;28;20022;-71
2021/10/12 01:10:31;;;;;;;44.33;25.98;;;;;;;7.05;100.00;96428.34;1026899;28;20135;-71
2021/10/12 01:11:01;;;;;;;51.90;28.13;;;;;;;7.07;100.00;96431.50;1022811;29;20596;-71
2021/10/12 01:11:35;;;;;;;41.42;25.10;;;;;;;7.00;100.00;96418.53;1026676;28;20270;-71
2021/10/12 01:12:05;;;;;;;43.80;26.85;;;;;;;7.02;100.00;96423.56;1018913;29;20509;-70
2021/10/12 01:12:36;;;;;;;44.95;24.48;;;;;;;7.06;100.00;96427.31;1026936;28;20266;-71
2021/10/12 01:13:08;;;;;;;44.10;26.17;;;;;;;7.03;100.00;96425.13;1026761;28;20054;-70
2021/10/12 01:13:41;;;;;;;46.92;28.00;;;;;;;7.04;100.00;96416.28;1018919;29;20263;-71
2021/10/12 01:14:11;;;;;;;44.28;26.17;;;;;;;7.03;100.00;96422.53;1023018;29;20270;-71
2021/10/12 01:14:42;;;;;;;38.42;25.48;;;;;;;7.04;100.00;96424.13;1022937;29;20038;-71
2021/10/12 01:15:12;;;;;;;39.22;25.55;;;;;;;7.05;100.00;96423.13;1019597;28;20028;-71
2021/10/12 01:15:43;;;;;;;41.38;26.25;;;;;;;7.05;100.00;96423.13;1018766;29;20521;-71
2021/10/12 01:16:16;;;;;;;41.20;25.60;;;;;;;7.02;100.00;96418.34;1022851;28;20784;-71
2021/10/12 01:16:46;;;;;;;44.45;27.17;;;;;;;7.02;100.00;96413.13;1023237;28;20062;-71
2021/10/12 01:17:17;;;;;;;43.15;25.98;;;;;;;7.05;100.00;96420.50;1022841;29;20298;-71
2021/10/12 01:17:50;;;;;;;50.60;27.10;;;;;;;7.07;100.00;96423.66;1018242;29;20158;-71
2021/10/12 01:18:20;;;;;;;43.65;27.10;;;;;;;7.03;100.00;96414.69;1019100;29;20259;-71
2021/10/12 01:18:55;;;;;;;44.20;25.65;;;;;;;7.09;100.00;96419.03;1018924;29;20035;-71
2021/10/12 01:19:26;;;;;;;43.80;26.33;;;;;;;7.00;100.00;96409.94;1019533;29;20028;-71
2021/10/12 01:19:56;;;;;;;44.75;27.00;;;;;;;7.10;100.00;96425.84;1019031;29;20259;-72
2021/10/12 01:20:27;;;;;;;49.17;27.45;;;;;;;7.08;100.00;96417.44;1020779;28;20031;-71
2021/10/12 01:20:57;;;;;;;47.42;27.33;;;;;;;7.10;100.00;96415.41;1023096;29;20516;-71
2021/10/12 01:21:29;;;;;;;44.63;25.73;;;;;;;7.10;100.00;96420.63;1018935;29;20024;-72
2021/10/12 01:21:59;;;;;;;44.25;25.77;;;;;;;7.12;100.00;96418.59;1018891;29;20028;-70
2021/10/12 01:22:30;;;;;;;45.05;26.65;;;;;;;7.12;100.00;96423.81;1019240;28;20259;-71
2021/10/12 01:23:00;;;;;;;46.75;28.30;;;;;;;7.10;100.00;96423.22;1022986;28;20031;-70
2021/10/12 01:23:30;;;;;;;47.42;26.88;;;;;;;7.11;100.00;96426.63;1023176;28;20027;-71
2021/10/12 01:24:01;;;;;;;47.70;28.48;;;;;;;7.12;100.00;96420.41;1018856;29;20084;-70
2021/10/12 01:24:31;;;;;;;47.72;27.90;;;;;;;7.11;100.00;96422.22;1015024;29;20028;-71
2021/10/12 01:25:02;;;;;;;41.53;26.77;;;;;;;7.13;100.00;96424.59;1015047;29;20042;-70
2021/10/12 01:25:32;;;;;;;46.72;27.98;;;;;;;7.10;100.00;96423.22;1019020;29;20063;-71
2021/10/12 01:26:03;;;;;;;42.40;26.13;;;;;;;7.12;100.00;96421.19;1018942;29;20042;-71
2021/10/12 01:26:34;;;;;;;45.97;26.17;;;;;;;7.03;100.00;96406.88;1026751;28;20054;-72
2021/10/12 01:27:04;;;;;;;45.15;27.20;;;;;;;7.05;100.00;96410.84;1022856;29;20023;-70
2021/10/12 01:27:34;;;;;;;46.58;27.35;;;;;;;7.10;100.00;96418.00;1019004;29;20031;-71
2021/10/12 01:28:08;;;;;;;46.25;28.15;;;;;;;7.13;100.00;96420.19;1022122;29;20031;-70
2021/10/12 01:28:43;;;;;;;49.42;27.98;;;;;;;7.10;100.00;96415.41;1019278;29;20587;-70
2021/10/12 01:29:14;;;;;;;44.45;27.98;;;;;;;7.04;100.00;96406.66;1023688;28;20274;-70
2021/10/12 01:29:44;;;;;;;47.08;28.20;;;;;;;7.12;100.00;96423.81;1026542;28;20774;-71
2021/10/12 01:30:18;;;;;;;49.05;28.52;;;;;;;7.12;100.00;96421.19;1031030;28;20249;-71
2021/10/12 01:30:48;;;;;;;45.20;27.95;;;;;;;7.08;100.00;96412.22;1029838;28;20289;-71
2021/10/12 01:31:21;;;;;;;50.17;27.00;;;;;;;7.14;100.00;96413.94;1023307;28;20027;-71
2021/10/12 01:31:52;;;;;;;47.67;27.55;;;;;;;7.14;100.00;96416.53;1027801;28;20072;-71
2021/10/12 01:32:22;;;;;;;48.90;26.58;;;;;;;7.12;100.00;96413.38;1026830;28;20628;-72
2021/10/12 01:32:53;;;;;;;47.45;29.15;;;;;;;7.06;100.00;96407.22;1029438;28;20528;-72
2021/10/12 01:33:23;;;;;;;44.65;27.05;;;;;;;7.04;100.00;96400.63;1026896;28;20596;-71
2021/10/12 01:33:54;;;;;;;45.10;28.95;;;;;;;7.12;100.00;96415.97;1022889;28;20453;-71
2021/10/12 01:34:24;;;;;;;50.70;28.30;;;;;;;7.12;100.00;96418.59;1022944;29;20762;-70
2021/10/12 01:34:59;;;;;;;50.05;29.05;;;;;;;7.07;100.00;96406.19;1022674;29;20023;-71
2021/10/12 01:35:30;;;;;;;46.78;29.02;;;;;;;7.08;100.00;96401.78;1026770;28;20054;-71
2021/10/12 01:36:00;;;;;;;46.95;27.58;;;;;;;7.10;100.00;96410.19;1022869;29;20341;-70
2021/10/12 01:36:31;;;;;;;49.63;28.55;;;;;;;7.13;100.00;96414.16;1023591;28;20031;-71
2021/10/12 01:37:01;;;;;;;51.00;30.00;;;;;;;7.12;100.00;96408.16;1026793;28;20027;-71
2021/10/12 01:37:31;;;;;;;49.50;28.48;;;;;;;7.14;100.00;96416.53;1035172;28;20037;-71
2021/10/12 01:38:02;;;;;;;47.03;28.58;;;;;;;7.12;100.00;96412.59;1034147;28;20030;-70
2021/10/12 01:38:33;;;;;;;46.28;28.60;;;;;;;7.05;100.00;96397.03;1027132;28;20499;-71
2021/10/12 01:39:03;;;;;;;49.92;28.88;;;;;;;7.08;100.00;96402.59;1018567;29;20544;-71
2021/10/12 01:39:33;;;;;;;48.25;29.58;;;;;;;7.06;100.00;96398.59;1022844;29;20016;-71
2021/10/12 01:40:05;;;;;;;52.55;29.33;;;;;;;7.14;100.00;96408.72;1026861;28;20091;-71
2021/10/12 01:40:36;;;;;;;55.40;30.20;;;;;;;7.16;100.00;96406.69;1022663;29;20030;-72
2021/10/12 01:41:06;;;;;;;49.17;28.55;;;;;;;7.17;100.00;96405.66;1026581;28;20874;-72
2021/10/12 01:41:37;;;;;;;50.63;29.80;;;;;;;7.14;100.00;96400.88;1019211;29;20409;-72
2021/10/12 01:42:07;;;;;;;49.42;30.63;;;;;;;7.14;100.00;96406.09;1018887;28;20031;-72
2021/10/12 01:42:37;;;;;;;46.15;27.85;;;;;;;7.18;100.00;96409.88;1027023;28;20093;-72
2021/10/12 01:43:08;;;;;;;44.13;27.33;;;;;;;7.16;100.00;96398.84;1026657;28;20479;-68
2021/10/12 01:43:38;;;;;;;51.55;29.00;;;;;;;7.16;100.00;96404.06;1026706;28;20042;-70
2021/10/12 01:44:12;;;;;;;49.75;28.90;;;;;;;7.17;100.00;96403.03;1027123;28;20030;-71
2021/10/12 01:44:43;;;;;;;50.50;29.05;;;;;;;7.15;100.00;96410.31;1027313;28;20377;-71
2021/10/12 01:45:13;;;;;;;46.28;27.90;;;;;;;7.12;100.00;96397.72;1025479;28;20274;-68
2021/10/12 01:45:44;;;;;;;48.85;29.55;;;;;;;7.12;100.00;96397.72;1016443;29;20115;-71
2021/10/12 01:46:14;;;;;;;56.13;29.35;;;;;;;7.09;100.00;96401.56;1018566;29;20031;-70
2021/10/12 01:46:45;;;;;;;47.22;29.08;;;;;;;7.09;100.00;96398.16;1022527;29;20038;-71
2021/10/12 01:47:15;;;;;;;51.83;28.85;;;;;;;7.07;100.00;96398.38;1018422;28;20024;-70
2021/10/12 01:47:45;;;;;;;49.90;28.50;;;;;;;7.10;100.00;96394.53;1014018;29;20482;-70
2021/10/12 01:48:16;;;;;;;51.85;31.00;;;;;;;7.11;100.00;96401.34;1022175;29;20074;-71
2021/10/12 01:48:46;;;;;;;52.60;30.08;;;;;;;7.09;100.00;96391.13;1018730;29;20537;-71
2021/10/12 01:49:20;;;;;;;53.35;31.42;;;;;;;7.13;100.00;96396.69;1020892;28;20083;-71
2021/10/12 01:49:50;;;;;;;48.47;29.08;;;;;;;7.10;100.00;96394.53;1026727;28;20022;-71
2021/10/12 01:50:21;;;;;;;50.97;30.13;;;;;;;7.10;100.00;96394.53;1023054;28;20251;-70
2021/10/12 01:50:51;;;;;;;49.33;29.42;;;;;;;7.05;100.00;96387.38;1023320;28;20073;-71
2021/10/12 01:51:22;;;;;;;54.20;30.88;;;;;;;6.93;100.00;96367.50;1026299;28;20034;-71
2021/10/12 01:51:53;;;;;;;54.88;30.70;;;;;;;7.12;100.00;96396.94;1018778;29;20036;-71
2021/10/12 01:52:23;;;;;;;50.28;29.90;;;;;;;7.05;100.00;96381.38;1026573;28;20027;-71
2021/10/12 01:52:54;;;;;;;49.30;28.88;;;;;;;7.08;100.00;96386.13;1018595;29;20035;-70
2021/10/12 01:53:24;;;;;;;47.75;28.48;;;;;;;7.07;100.00;96387.13;1022167;29;20027;-72
2021/10/12 01:53:55;;;;;;;56.00;31.95;;;;;;;7.12;100.00;96392.50;1018659;29;20028;-71
2021/10/12 01:54:28;;;;;;;52.65;30.70;;;;;;;7.12;100.00;96392.50;1018465;28;20087;-72
2021/10/12 01:54:59;;;;;;;52.33;30.90;;;;;;;7.10;100.00;96394.53;1026730;28;20108;-71
2021/10/12 01:55:29;;;;;;;52.72;29.75;;;;;;;7.11;100.00;96388.31;1026882;28;20262;-70
2021/10/12 01:56:00;;;;;;;53.20;29.48;;;;;;;7.09;100.00;96379.91;1031045;28;20033;-70
2021/10/12 01:56:33;;;;;;;56.40;29.92;;;;;;;7.08;100.00;96388.75;1034680;28;20033;-71
2021/10/12 01:57:03;;;;;;;49.28;29.67;;;;;;;7.04;100.00;96379.75;1030502;28;20037;-70
2021/10/12 01:57:34;;;;;;;52.65;30.27;;;;;;;7.06;100.00;96385.56;1022883;28;20282;-70
2021/10/12 01:58:04;;;;;;;52.58;28.50;;;;;;;7.05;100.00;96381.38;1021853;29;20042;-71
2021/10/12 01:58:35;;;;;;;57.88;31.80;;;;;;;7.00;100.00;96373.41;1026629;28;20030;-70
2021/10/12 01:59:05;;;;;;;49.15;28.42;;;;;;;7.04;100.00;96380.56;1022704;28;20042;-70
2021/10/12 01:59:36;;;;;;;54.10;30.13;;;;;;;7.04;100.00;96385.78;1022457;29;20035;-71
2021/10/12 02:00:07;;;;;;;53.42;30.73;;;;;;;7.07;100.00;96389.75;1018931;29;20069;-71
2021/10/12 02:00:38;;;;;;;51.42;29.45;;;;;;;7.03;100.00;96378.16;1018919;29;20098;-71
2021/10/12 02:01:09;;;;;;;51.95;29.00;;;;;;;7.05;100.00;96382.16;1026376;28;20266;-71
2021/10/12 02:01:40;;;;;;;50.10;29.38;;;;;;;7.05;100.00;96381.38;1022177;29;20038;-68
2021/10/12 02:02:11;;;;;;;49.65;29.55;;;;;;;7.05;100.00;96383.97;1026812;28;20410;-70
2021/10/12 02:02:42;;;;;;;52.97;30.60;;;;;;;7.05;100.00;96382.16;1020444;29;20757;-71
2021/10/12 02:03:12;;;;;;;50.20;28.80;;;;;;;7.05;100.00;96386.59;1026723;28;20043;-71
2021/10/12 02:03:42;;;;;;;54.00;30.55;;;;;;;7.06;100.00;96382.94;1028947;28;20033;-71
2021/10/12 02:04:13;;;;;;;53.92;30.38;;;;;;;7.04;100.00;96384.97;1030484;28;20073;-71
2021/10/12 02:04:43;;;;;;;51.28;30.67;;;;;;;7.05;100.00;96386.59;1028525;28;20030;-71
2021/10/12 02:05:14;;;;;;;52.00;31.77;;;;;;;7.03;100.00;96378.97;1022448;29;20030;-71
2021/10/12 02:05:47;;;;;;;54.20;29.63;;;;;;;7.01;100.00;96388.84;1021304;29;20035;-71
2021/10/12 02:06:20;;;;;;;48.15;28.48;;;;;;;7.01;100.00;96375.81;1020002;28;20024;-70
2021/10/12 02:06:50;;;;;;;53.92;29.15;;;;;;;7.05;100.00;96378.75;1026135;28;20361;-71
2021/10/12 02:07:21;;;;;;;50.25;29.55;;;;;;;7.05;100.00;96378.75;1027450;28;20493;-71
2021/10/12 02:07:51;;;;;;;52.53;30.73;;;;;;;7.00;100.00;96373.41;1025906;28;20094;-71
2021/10/12 02:08:22;;;;;;;56.90;31.38;;;;;;;7.04;100.00;96374.53;1034253;28;20033;-70
2021/10/12 02:08:55;;;;;;;57.53;32.45;;;;;;;7.02;100.00;96368.75;1035047;28;20116;-70
2021/10/12 02:09:26;;;;;;;58.22;32.17;;;;;;;7.04;100.00;96371.94;1030298;28;20284;-71
2021/10/12 02:09:56;;;;;;;49.60;30.15;;;;;;;7.04;100.00;96375.34;1030650;28;20030;-71
2021/10/12 02:10:27;;;;;;;48.42;28.90;;;;;;;7.06;100.00;96373.31;1022189;28;20062;-71
2021/10/12 02:10:57;;;;;;;53.22;29.35;;;;;;;7.02;100.00;96366.94;1022759;28;20031;-71
2021/10/12 02:11:28;;;;;;;56.20;30.63;;;;;;;7.03;100.00;96368.53;1022509;29;20067;-71
2021/10/12 02:11:58;;;;;;;55.78;31.50;;;;;;;7.01;100.00;96367.97;1022746;28;20039;-71
2021/10/12 02:12:30;;;;;;;51.67;29.10;;;;;;;7.03;100.00;96383.41;1026406;28;20035;-70
2021/10/12 02:13:00;;;;;;;60.50;31.02;;;;;;;7.02;100.00;96371.38;1030800;28;20037;-70
2021/10/12 02:13:30;;;;;;;53.22;30.83;;;;;;;7.01;100.00;96378.41;1030518;28;20428;-72
2021/10/12 02:14:01;;;;;;;49.22;29.10;;;;;;;7.02;100.00;96377.38;1031061;28;20026;-71
2021/10/12 02:14:31;;;;;;;50.13;32.00;;;;;;;7.00;100.00;96376.81;1038359;28;20033;-71
2021/10/12 02:15:02;;;;;;;51.72;29.83;;;;;;;7.01;100.00;96375.00;1034511;28;20049;-71
2021/10/12 02:15:32;;;;;;;58.00;31.73;;;;;;;6.97;100.00;96369.41;1030674;28;20030;-71
2021/10/12 02:16:03;;;;;;;55.05;30.35;;;;;;;7.01;100.00;96375.00;1026417;28;20030;-71
2021/10/12 02:16:34;;;;;;;50.97;29.83;;;;;;;6.98;100.00;96368.41;1026560;28;20038;-71
2021/10/12 02:17:04;;;;;;;52.88;30.83;;;;;;;7.01;100.00;96369.78;1026502;28;20019;-70
2021/10/12 02:17:35;;;;;;;53.95;31.45;;;;;;;7.01;100.00;96367.19;1022648;28;20023;-70
2021/10/12 02:18:05;;;;;;;61.63;32.17;;;;;;;6.97;100.00;96366.81;1017528;29;20034;-71
2021/10/12 02:18:36;;;;;;;60.67;32.60;;;;;;;6.99;100.00;96370.00;1018317;29;20055;-70
2021/10/12 02:19:06;;;;;;;58.70;32.90;;;;;;;7.01;100.00;96364.56;1024185;28;20038;-71
2021/10/12 02:19:37;;;;;;;52.13;31.98;;;;;;;7.00;100.00;96368.19;1030108;28;20055;-70
2021/10/12 02:20:08;;;;;;;58.15;31.52;;;;;;;6.79;100.00;96341.59;1026319;28;20042;-70
2021/10/12 02:20:38;;;;;;;58.00;31.20;;;;;;;6.99;100.00;96362.19;1027996;28;20034;-71
2021/10/12 02:21:09;;;;;;;56.40;31.35;;;;;;;6.96;100.00;96361.81;1022583;29;20302;-71
2021/10/12 02:21:39;;;;;;;54.67;30.75;;;;;;;7.00;100.00;96368.19;1027986;28;20034;-70